Time,TemperatureF,DewpointF,PressureIn,WindDirection,WindDirectionDegrees,WindSpeedMPH,WindSpeedGustMPH,Humidity,HourlyPrecipIn,Conditions,Clouds,dailyrainin,SoftwareType,DateUTC
2013-01-15 00:00:00,64.2,63.0,29.88,SW,225,0.0,0.0,96,0.00,,,0.00,WeatherCatV1.11B39,2013-01-15 10:00:00,
2013-01-15 00:05:00,64.2,63.0,29.88,SW,225,0.0,0.0,96,0.00,,,0.00,WeatherCatV1.11B39,2013-01-15 10:05:00,
2013-01-15 00:10:00,64.2,63.0,29.88,SW,225,0.0,0.0,96,0.00,,,0.00,WeatherCatV1.11B39,2013-01-15 10:10:00,
2013-01-15 00:15:00,63.9,63.0,29.87,SW,225,0.0,0.0,97,0.00,,,0.00,WeatherCatV1.11B39,2013-01-15 10:15:00,
2013-01-15 00:20:00,63.9,63.0,29.87,SW,225,0.0,0.0,97,0.00,,,0.00,WeatherCatV1.11B39,2013-01-15 10:20:00,
2013-01-15 00:25:00,63.9,63.0,29.87,SW,225,0.0,0.0,97,0.00,,,0.00,WeatherCatV1.11B39,2013-01-15 10:25:00,
2013-01-15 00:30:00,63.9,63.0,29.87,SW,225,0.0,0.0,97,0.00,,,0.00,WeatherCatV1.11B39,2013-01-15 10:30:00,
2013-01-15 00:35:00,63.9,63.0,29.87,SW,225,0.0,0.0,97,0.00,,,0.00,WeatherCatV1.11B39,2013-01-15 10:35:00,
2013-01-15 00:40:00,63.9,63.0,29.87,SW,225,0.0,0.0,97,0.00,,,0.00,WeatherCatV1.11B39,2013-01-15 10:40:00,
2013-01-15 00:45:00,63.8,62.9,29.87,SW,225,0.0,0.0,97,0.00,,,0.00,WeatherCatV1.11B39,2013-01-15 10:45:00,
2013-01-15 00:50:00,63.8,62.9,29.87,SW,225,0.0,0.0,97,0.00,,,0.00,WeatherCatV1.11B39,2013-01-15 10:50:00,
2013-01-15 00:55:00,63.8,62.9,29.87,SW,225,0.0,0.0,97,0.00,,,0.00,WeatherCatV1.11B39,2013-01-15 10:55:00,
2013-01-15 01:00:00,63.8,62.9,29.87,SW,225,0.0,0.0,97,0.00,,,0.00,WeatherCatV1.11B39,2013-01-15 11:00:00,
2013-01-15 01:05:00,63.8,62.9,29.87,SW,225,0.0,0.0,97,0.00,,,0.00,WeatherCatV1.11B39,2013-01-15 11:05:00,
2013-01-15 01:10:00,63.8,62.9,29.87,SW,225,0.0,0.0,97,0.00,,,0.00,WeatherCatV1.11B39,2013-01-15 11:10:00,
2013-01-15 01:15:00,63.7,62.8,29.89,SW,225,0.0,0.0,97,0.00,,,0.00,WeatherCatV1.11B39,2013-01-15 11:15:00,
2013-01-15 01:20:00,63.7,62.8,29.89,SW,225,0.0,0.0,97,0.00,,,0.00,WeatherCatV1.11B39,2013-01-15 11:20:00,
2013-01-15 01:25:00,63.7,62.8,29.89,SW,225,0.0,0.0,97,0.00,,,0.00,WeatherCatV1.11B39,2013-01-15 11:25:00,
2013-01-15 01:30:00,63.7,62.8,29.89,SW,225,0.0,0.0,97,0.00,,,0.00,WeatherCatV1.11B39,2013-01-15 11:30:00,
2013-01-15 01:35:00,63.7,62.8,29.89,SW,225,0.0,0.0,97,0.00,,,0.00,WeatherCatV1.11B39,2013-01-15 11:35:00,
2013-01-15 01:40:00,63.7,62.8,29.89,SW,225,0.0,0.0,97,0.00,,,0.00,WeatherCatV1.11B39,2013-01-15 11:40:00,
2013-01-15 01:45:00,63.5,62.9,29.88,SW,225,0.0,0.0,98,0.00,,,0.00,WeatherCatV1.11B39,2013-01-15 11:45:00,
2013-01-15 01:50:00,63.5,62.9,29.88,SW,225,0.0,0.0,98,0.00,,,0.00,WeatherCatV1.11B39,2013-01-15 11:50:00,
2013-01-15 01:55:00,63.5,62.9,29.88,SW,225,0.0,0.0,98,0.00,,,0.00,WeatherCatV1.11B39,2013-01-15 11:55:00,
2013-01-15 02:00:00,63.5,62.9,29.88,SW,225,0.0,0.0,98,0.00,,,0.00,WeatherCatV1.11B39,2013-01-15 12:00:00,
2013-01-15 02:05:00,63.5,62.9,29.88,SW,225,0.0,0.0,98,0.00,,,0.00,WeatherCatV1.11B39,2013-01-15 12:05:00,
2013-01-15 02:10:00,63.5,62.9,29.88,SW,225,0.0,0.0,98,0.00,,,0.00,WeatherCatV1.11B39,2013-01-15 12:10:00,
2013-01-15 02:15:00,63.3,62.7,29.87,SW,225,0.0,0.0,98,0.00,,,0.00,WeatherCatV1.11B39,2013-01-15 12:15:00,
2013-01-15 02:20:00,63.3,62.7,29.87,SW,225,0.0,0.0,98,0.00,,,0.00,WeatherCatV1.11B39,2013-01-15 12:20:00,
2013-01-15 02:25:00,63.3,62.7,29.87,SW,225,0.0,0.0,98,0.00,,,0.00,WeatherCatV1.11B39,2013-01-15 12:25:00,
2013-01-15 02:30:00,63.3,62.7,29.87,SW,225,0.0,0.0,98,0.00,,,0.00,WeatherCatV1.11B39,2013-01-15 12:30:00,
2013-01-15 02:35:00,63.3,62.7,29.87,SW,225,0.0,0.0,98,0.00,,,0.00,WeatherCatV1.11B39,2013-01-15 12:35:00,
2013-01-15 02:40:00,63.3,62.7,29.87,SW,225,0.0,0.0,98,0.00,,,0.00,WeatherCatV1.11B39,2013-01-15 12:40:00,
2013-01-15 02:45:00,62.9,62.0,29.86,SW,225,0.0,0.0,97,0.00,,,0.00,WeatherCatV1.11B39,2013-01-15 12:45:00,
2013-01-15 02:50:00,62.9,62.0,29.86,SW,225,0.0,0.0,97,0.00,,,0.00,WeatherCatV1.11B39,2013-01-15 12:50:00,
2013-01-15 02:55:00,62.9,62.0,29.86,SW,225,0.0,0.0,97,0.00,,,0.00,WeatherCatV1.11B39,2013-01-15 12:55:00,
2013-01-15 03:00:00,62.9,62.0,29.86,SW,225,0.0,0.0,97,0.00,,,0.00,WeatherCatV1.11B39,2013-01-15 13:00:00,
2013-01-15 03:05:00,62.9,62.0,29.86,SW,225,0.0,0.0,97,0.00,,,0.00,WeatherCatV1.11B39,2013-01-15 13:05:00,
2013-01-15 03:10:00,62.9,62.0,29.86,SW,225,0.0,0.0,97,0.00,,,0.00,WeatherCatV1.11B39,2013-01-15 13:10:00,
2013-01-15 03:15:00,62.1,61.5,29.86,SW,225,0.0,0.0,98,0.00,,,0.00,WeatherCatV1.11B39,2013-01-15 13:15:00,
2013-01-15 03:20:00,62.1,61.5,29.86,SW,225,0.0,0.0,98,0.00,,,0.00,WeatherCatV1.11B39,2013-01-15 13:20:00,
2013-01-15 03:25:00,62.1,61.5,29.86,SW,225,0.0,0.0,98,0.00,,,0.00,WeatherCatV1.11B39,2013-01-15 13:25:00,
2013-01-15 03:30:00,62.1,61.5,29.86,SW,225,0.0,0.0,98,0.00,,,0.00,WeatherCatV1.11B39,2013-01-15 13:30:00,
2013-01-15 03:35:00,62.1,61.5,29.86,SW,225,0.0,0.0,98,0.00,,,0.00,WeatherCatV1.11B39,2013-01-15 13:35:00,
2013-01-15 03:40:00,62.1,61.5,29.86,SW,225,0.0,0.0,98,0.00,,,0.00,WeatherCatV1.11B39,2013-01-15 13:40:00,
2013-01-15 03:45:00,61.3,60.7,29.86,SW,225,0.0,0.0,98,0.00,,,0.00,WeatherCatV1.11B39,2013-01-15 13:45:00,
2013-01-15 03:50:00,61.3,60.7,29.86,SW,225,0.0,0.0,98,0.00,,,0.00,WeatherCatV1.11B39,2013-01-15 13:50:00,
2013-01-15 03:55:00,61.3,60.7,29.86,SW,225,0.0,0.0,98,0.00,,,0.00,WeatherCatV1.11B39,2013-01-15 13:55:00,
2013-01-15 04:00:00,61.3,60.7,29.86,SW,225,0.0,0.0,98,0.00,,,0.00,WeatherCatV1.11B39,2013-01-15 14:00:00,
2013-01-15 04:05:00,61.3,60.7,29.86,SW,225,0.0,0.0,98,0.00,,,0.00,WeatherCatV1.11B39,2013-01-15 14:05:00,
2013-01-15 04:10:00,61.3,60.7,29.86,SW,225,0.0,0.0,98,0.00,,,0.00,WeatherCatV1.11B39,2013-01-15 14:10:00,
2013-01-15 04:15:00,60.9,60.3,29.86,SW,225,0.0,0.0,98,0.00,,,0.00,WeatherCatV1.11B39,2013-01-15 14:15:00,
2013-01-15 04:20:00,60.9,60.3,29.86,SW,225,0.0,0.0,98,0.00,,,0.00,WeatherCatV1.11B39,2013-01-15 14:20:00,
2013-01-15 04:25:00,60.9,60.3,29.86,SW,225,0.0,0.0,98,0.00,,,0.00,WeatherCatV1.11B39,2013-01-15 14:25:00,
2013-01-15 04:30:00,60.9,60.3,29.86,SW,225,0.0,0.0,98,0.00,,,0.00,WeatherCatV1.11B39,2013-01-15 14:30:00,
2013-01-15 04:35:00,60.9,60.3,29.86,SW,225,0.0,0.0,98,0.00,,,0.00,WeatherCatV1.11B39,2013-01-15 14:35:00,
2013-01-15 04:40:00,60.9,60.3,29.86,SW,225,0.0,0.0,98,0.00,,,0.00,WeatherCatV1.11B39,2013-01-15 14:40:00,
2013-01-15 04:45:00,60.3,59.7,29.87,SW,225,0.0,0.0,98,0.00,,,0.00,WeatherCatV1.11B39,2013-01-15 14:45:00,
2013-01-15 04:50:00,60.3,59.7,29.87,SW,225,0.0,0.0,98,0.00,,,0.00,WeatherCatV1.11B39,2013-01-15 14:50:00,
2013-01-15 04:55:00,60.3,59.7,29.87,SW,225,0.0,0.0,98,0.00,,,0.00,WeatherCatV1.11B39,2013-01-15 14:55:00,
2013-01-15 05:00:00,60.3,59.7,29.87,SW,225,0.0,0.0,98,0.00,,,0.00,WeatherCatV1.11B39,2013-01-15 15:00:00,
2013-01-15 05:05:00,60.3,59.7,29.87,SW,225,0.0,0.0,98,0.00,,,0.00,WeatherCatV1.11B39,2013-01-15 15:05:00,
2013-01-15 05:10:00,60.3,59.7,29.87,SW,225,0.0,0.0,98,0.00,,,0.00,WeatherCatV1.11B39,2013-01-15 15:10:00,
2013-01-15 05:15:00,59.9,59.3,29.87,SW,225,0.0,0.0,98,0.00,,,0.00,WeatherCatV1.11B39,2013-01-15 15:15:00,
2013-01-15 05:20:00,59.9,59.3,29.87,SW,225,0.0,0.0,98,0.00,,,0.00,WeatherCatV1.11B39,2013-01-15 15:20:00,
2013-01-15 05:25:00,59.9,59.3,29.87,SW,225,0.0,0.0,98,0.00,,,0.00,WeatherCatV1.11B39,2013-01-15 15:25:00,
2013-01-15 05:30:00,59.9,59.3,29.87,SW,225,0.0,0.0,98,0.00,,,0.00,WeatherCatV1.11B39,2013-01-15 15:30:00,
2013-01-15 05:35:00,59.9,59.3,29.87,SW,225,0.0,0.0,98,0.00,,,0.00,WeatherCatV1.11B39,2013-01-15 15:35:00,
2013-01-15 05:40:00,59.9,59.3,29.87,SW,225,0.0,0.0,98,0.00,,,0.00,WeatherCatV1.11B39,2013-01-15 15:40:00,
2013-01-15 05:45:00,59.3,58.7,29.86,SW,225,0.0,0.0,98,0.00,,,0.00,WeatherCatV1.11B39,2013-01-15 15:45:00,
2013-01-15 05:50:00,59.3,58.7,29.86,SW,225,0.0,0.0,98,0.00,,,0.00,WeatherCatV1.11B39,2013-01-15 15:50:00,
2013-01-15 05:55:00,59.3,58.7,29.86,SW,225,0.0,0.0,98,0.00,,,0.00,WeatherCatV1.11B39,2013-01-15 15:55:00,
2013-01-15 06:00:00,59.3,58.7,29.86,SW,225,0.0,0.0,98,0.00,,,0.00,WeatherCatV1.11B39,2013-01-15 16:00:00,
2013-01-15 06:05:00,59.3,58.7,29.86,SW,225,0.0,0.0,98,0.00,,,0.00,WeatherCatV1.11B39,2013-01-15 16:05:00,
2013-01-15 06:10:00,59.3,58.7,29.86,SW,225,0.0,0.0,98,0.00,,,0.00,WeatherCatV1.11B39,2013-01-15 16:10:00,
2013-01-15 06:15:00,58.7,58.1,29.85,SW,225,0.0,0.0,98,0.00,,,0.00,WeatherCatV1.11B39,2013-01-15 16:15:00,
2013-01-15 06:20:00,58.7,58.1,29.85,SW,225,0.0,0.0,98,0.00,,,0.00,WeatherCatV1.11B39,2013-01-15 16:20:00,
2013-01-15 06:25:00,58.7,58.1,29.85,SW,225,0.0,0.0,98,0.00,,,0.00,WeatherCatV1.11B39,2013-01-15 16:25:00,
2013-01-15 06:30:00,58.7,58.1,29.85,SW,225,0.0,0.0,98,0.00,,,0.00,WeatherCatV1.11B39,2013-01-15 16:30:00,
2013-01-15 06:35:00,58.7,58.1,29.85,SW,225,0.0,0.0,98,0.00,,,0.00,WeatherCatV1.11B39,2013-01-15 16:35:00,
2013-01-15 06:48:00,58.7,58.1,29.85,SW,225,0.0,0.0,98,0.00,,,0.00,WeatherCatV1.11B39,2013-01-15 16:48:00,
2013-01-15 06:53:00,58.0,57.4,29.86,SE,144,0.0,0.0,98,0.00,,,0.00,WeatherCatV1.11B39,2013-01-15 16:53:00,
2013-01-15 06:58:00,57.9,57.3,29.85,SE,144,0.0,0.0,98,0.00,,,0.00,WeatherCatV1.11B39,2013-01-15 16:58:00,
2013-01-15 07:03:00,57.6,57.0,29.86,SE,144,0.0,0.0,98,0.00,,,0.00,WeatherCatV1.11B39,2013-01-15 17:03:00,
2013-01-15 07:08:00,57.4,56.8,29.86,SE,144,0.0,0.0,98,0.00,,,0.00,WeatherCatV1.11B39,2013-01-15 17:08:00,
2013-01-15 07:13:00,57.2,56.6,29.85,SE,144,0.0,0.0,98,0.00,,,0.00,WeatherCatV1.11B39,2013-01-15 17:13:00,
2013-01-15 07:18:00,57.3,56.7,29.86,SE,144,0.0,0.0,98,0.00,,,0.00,WeatherCatV1.11B39,2013-01-15 17:18:00,
2013-01-15 07:23:00,57.4,57.1,29.86,SE,144,0.0,0.0,99,0.00,,,0.00,WeatherCatV1.11B39,2013-01-15 17:23:00,
2013-01-15 07:28:00,57.7,57.4,29.86,SE,144,0.0,0.0,99,0.00,,,0.00,WeatherCatV1.11B39,2013-01-15 17:28:00,
2013-01-15 07:33:00,57.7,57.1,29.87,SE,144,0.0,0.0,98,0.00,,,0.00,WeatherCatV1.11B39,2013-01-15 17:33:00,
2013-01-15 07:38:00,57.7,57.1,29.87,SE,144,0.0,0.0,98,0.00,,,0.00,WeatherCatV1.11B39,2013-01-15 17:38:00,
2013-01-15 07:43:00,57.8,57.5,29.87,SE,144,0.0,0.0,99,0.00,,,0.00,WeatherCatV1.11B39,2013-01-15 17:43:00,
2013-01-15 07:48:00,57.7,57.1,29.87,SE,144,0.0,0.0,98,0.00,,,0.00,WeatherCatV1.11B39,2013-01-15 17:48:00,
2013-01-15 07:53:00,57.7,57.1,29.87,SE,144,0.0,0.0,98,0.00,,,0.00,WeatherCatV1.11B39,2013-01-15 17:53:00,
2013-01-15 07:58:00,58.4,58.1,29.88,SE,144,0.0,0.0,99,0.00,,,0.00,WeatherCatV1.11B39,2013-01-15 17:58:00,
2013-01-15 08:03:00,59.0,58.7,29.88,SE,144,0.0,0.0,99,0.00,,,0.00,WeatherCatV1.11B39,2013-01-15 18:03:00,
2013-01-15 08:08:00,59.4,58.8,29.88,SE,144,0.0,0.0,98,0.00,,,0.00,WeatherCatV1.11B39,2013-01-15 18:08:00,
2013-01-15 08:13:00,59.4,58.5,29.88,SE,144,0.0,0.0,97,0.00,,,0.00,WeatherCatV1.11B39,2013-01-15 18:13:00,
2013-01-15 08:18:00,59.9,59.0,29.88,SE,144,0.0,0.0,97,0.00,,,0.01,WeatherCatV1.11B39,2013-01-15 18:18:00,
2013-01-15 08:23:00,60.7,59.8,29.89,SE,144,0.0,0.0,97,0.00,,,0.01,WeatherCatV1.11B39,2013-01-15 18:23:00,
2013-01-15 08:28:00,61.4,60.2,29.88,SE,144,0.0,0.0,96,0.00,,,0.01,WeatherCatV1.11B39,2013-01-15 18:28:00,
2013-01-15 08:33:00,61.9,60.4,29.89,SE,144,0.0,0.0,95,0.00,,,0.01,WeatherCatV1.11B39,2013-01-15 18:33:00,
2013-01-15 08:38:00,62.8,60.7,29.89,SE,144,0.0,0.0,93,0.00,,,0.01,WeatherCatV1.11B39,2013-01-15 18:38:00,
2013-01-15 08:43:00,63.6,61.2,29.90,SE,144,0.0,0.0,92,0.00,,,0.01,WeatherCatV1.11B39,2013-01-15 18:43:00,
2013-01-15 08:48:00,64.5,61.5,29.89,SE,144,0.0,0.0,90,0.00,,,0.01,WeatherCatV1.11B39,2013-01-15 18:48:00,
2013-01-15 08:53:00,64.7,61.1,29.89,SE,144,0.0,0.0,88,0.00,,,0.01,WeatherCatV1.11B39,2013-01-15 18:53:00,
2013-01-15 08:55:00,64.8,61.2,29.90,SSE,147,0.0,0.0,88,0.00,,,0.00,WeatherCatV1.11B39,2013-01-15 18:55:00,
2013-01-15 09:00:00,64.9,60.9,29.90,SSE,150,0.0,0.0,87,0.00,,,0.00,WeatherCatV1.11B39,2013-01-15 19:00:00,
2013-01-15 09:05:00,64.9,60.9,29.90,SSE,150,0.0,0.0,87,0.00,,,0.00,WeatherCatV1.11B39,2013-01-15 19:05:00,
2013-01-15 09:10:00,64.9,60.9,29.90,SSE,150,0.0,0.0,87,0.00,,,0.00,WeatherCatV1.11B39,2013-01-15 19:10:00,
2013-01-15 09:15:00,64.9,60.9,29.90,SSE,150,0.0,0.0,87,0.00,,,0.00,WeatherCatV1.11B39,2013-01-15 19:15:00,
2013-01-15 09:20:00,65.0,61.0,29.90,North,0,0.0,0.0,87,0.00,,,0.00,WeatherCatV1.11B39,2013-01-15 19:20:00,
2013-01-15 09:25:00,65.0,61.0,29.90,North,0,0.0,0.0,87,0.00,,,0.00,WeatherCatV1.11B39,2013-01-15 19:25:00,
2013-01-15 09:30:00,65.0,61.0,29.90,North,0,0.0,0.0,87,0.00,,,0.00,WeatherCatV1.11B39,2013-01-15 19:30:00,
2013-01-15 09:35:00,65.0,61.0,29.90,North,0,0.0,0.0,87,0.00,,,0.00,WeatherCatV1.11B39,2013-01-15 19:35:00,
2013-01-15 09:40:00,65.0,61.0,29.90,North,0,0.0,0.0,87,0.00,,,0.00,WeatherCatV1.11B39,2013-01-15 19:40:00,
2013-01-15 09:45:00,65.0,61.0,29.90,North,0,0.0,0.0,87,0.00,,,0.00,WeatherCatV1.11B39,2013-01-15 19:45:00,
2013-01-15 09:50:00,65.0,61.0,29.90,North,0,0.0,0.0,87,0.00,,,0.00,WeatherCatV1.11B39,2013-01-15 19:50:00,
2013-01-15 09:55:00,67.3,60.9,29.89,SW,225,0.0,1.0,80,0.00,,,0.00,WeatherCatV1.11B39,2013-01-15 19:55:00,
2013-01-15 10:00:00,67.3,60.9,29.89,SW,225,0.0,1.0,80,0.00,,,0.00,WeatherCatV1.11B39,2013-01-15 20:00:00,
2013-01-15 10:05:00,67.3,60.9,29.89,SW,225,0.0,1.0,80,0.00,,,0.00,WeatherCatV1.11B39,2013-01-15 20:05:00,
2013-01-15 10:10:00,67.3,60.9,29.89,SW,225,0.0,1.0,80,0.00,,,0.00,WeatherCatV1.11B39,2013-01-15 20:10:00,
2013-01-15 10:15:00,67.3,60.9,29.89,SW,225,0.0,1.0,80,0.00,,,0.00,WeatherCatV1.11B39,2013-01-15 20:15:00,
2013-01-15 10:20:00,67.3,60.9,29.89,SW,225,0.0,1.0,80,0.00,,,0.00,WeatherCatV1.11B39,2013-01-15 20:20:00,
2013-01-15 10:25:00,70.5,59.8,29.89,SW,225,0.0,1.0,69,0.00,,,0.00,WeatherCatV1.11B39,2013-01-15 20:25:00,
2013-01-15 10:30:00,70.5,59.8,29.89,SW,225,0.0,1.0,69,0.00,,,0.00,WeatherCatV1.11B39,2013-01-15 20:30:00,
2013-01-15 10:35:00,70.5,59.8,29.89,SW,225,0.0,1.0,69,0.00,,,0.00,WeatherCatV1.11B39,2013-01-15 20:35:00,
2013-01-15 10:40:00,70.5,59.8,29.89,SW,225,0.0,1.0,69,0.00,,,0.00,WeatherCatV1.11B39,2013-01-15 20:40:00,
2013-01-15 10:45:00,70.5,59.8,29.89,SW,225,0.0,1.0,69,0.00,,,0.00,WeatherCatV1.11B39,2013-01-15 20:45:00,
2013-01-15 10:50:00,70.5,59.8,29.89,SW,225,0.0,1.0,69,0.00,,,0.00,WeatherCatV1.11B39,2013-01-15 20:50:00,
2013-01-15 10:55:00,71.9,59.5,29.89,SW,225,0.0,3.0,65,0.00,,,0.00,WeatherCatV1.11B39,2013-01-15 20:55:00,
2013-01-15 11:00:00,71.9,59.5,29.89,SW,225,0.0,3.0,65,0.00,,,0.00,WeatherCatV1.11B39,2013-01-15 21:00:00,
2013-01-15 11:05:00,71.9,59.5,29.89,SW,225,0.0,3.0,65,0.00,,,0.00,WeatherCatV1.11B39,2013-01-15 21:05:00,
2013-01-15 11:10:00,71.9,59.5,29.89,SW,225,0.0,3.0,65,0.00,,,0.00,WeatherCatV1.11B39,2013-01-15 21:10:00,
2013-01-15 11:15:00,71.9,59.5,29.89,SW,225,0.0,3.0,65,0.00,,,0.00,WeatherCatV1.11B39,2013-01-15 21:15:00,
2013-01-15 11:20:00,71.9,59.5,29.89,SW,225,0.0,3.0,65,0.00,,,0.00,WeatherCatV1.11B39,2013-01-15 21:20:00,
2013-01-15 11:25:00,73.6,59.3,29.87,NE,45,0.0,3.0,61,0.00,,,0.00,WeatherCatV1.11B39,2013-01-15 21:25:00,
2013-01-15 11:30:00,73.6,59.3,29.87,NE,45,0.0,3.0,61,0.00,,,0.00,WeatherCatV1.11B39,2013-01-15 21:30:00,
2013-01-15 11:35:00,73.6,59.3,29.87,NE,45,0.0,3.0,61,0.00,,,0.00,WeatherCatV1.11B39,2013-01-15 21:35:00,
2013-01-15 11:40:00,73.6,59.3,29.87,NE,45,0.0,3.0,61,0.00,,,0.00,WeatherCatV1.11B39,2013-01-15 21:40:00,
2013-01-15 11:45:00,73.6,59.3,29.87,NE,45,0.0,3.0,61,0.00,,,0.00,WeatherCatV1.11B39,2013-01-15 21:45:00,
2013-01-15 11:50:00,73.6,59.3,29.87,NE,45,0.0,3.0,61,0.00,,,0.00,WeatherCatV1.11B39,2013-01-15 21:50:00,
2013-01-15 11:55:00,74.5,55.7,29.86,WNW,292,0.0,3.0,52,0.00,,,0.00,WeatherCatV1.11B39,2013-01-15 21:55:00,
2013-01-15 12:00:00,74.5,55.7,29.86,WNW,292,0.0,3.0,52,0.00,,,0.00,WeatherCatV1.11B39,2013-01-15 22:00:00,
2013-01-15 12:05:00,74.5,55.7,29.86,WNW,292,0.0,3.0,52,0.00,,,0.00,WeatherCatV1.11B39,2013-01-15 22:05:00,
2013-01-15 12:10:00,74.5,55.7,29.86,WNW,292,0.0,3.0,52,0.00,,,0.00,WeatherCatV1.11B39,2013-01-15 22:10:00,
2013-01-15 12:15:00,74.5,55.7,29.86,WNW,292,0.0,3.0,52,0.00,,,0.00,WeatherCatV1.11B39,2013-01-15 22:15:00,
2013-01-15 12:20:00,74.5,55.7,29.86,WNW,292,0.0,3.0,52,0.00,,,0.00,WeatherCatV1.11B39,2013-01-15 22:20:00,
2013-01-15 12:25:00,74.7,60.3,29.85,NE,45,1.0,5.0,61,0.00,,,0.00,WeatherCatV1.11B39,2013-01-15 22:25:00,
2013-01-15 12:30:00,74.7,60.3,29.85,NE,45,1.0,5.0,61,0.00,,,0.00,WeatherCatV1.11B39,2013-01-15 22:30:00,
2013-01-15 12:35:00,74.7,60.3,29.85,NE,45,1.0,5.0,61,0.00,,,0.00,WeatherCatV1.11B39,2013-01-15 22:35:00,
2013-01-15 12:40:00,74.7,60.3,29.85,NE,45,1.0,5.0,61,0.00,,,0.00,WeatherCatV1.11B39,2013-01-15 22:40:00,
2013-01-15 12:45:00,74.7,60.3,29.85,NE,45,1.0,5.0,61,0.00,,,0.00,WeatherCatV1.11B39,2013-01-15 22:45:00,
2013-01-15 12:50:00,74.7,60.3,29.85,NE,45,1.0,5.0,61,0.00,,,0.00,WeatherCatV1.11B39,2013-01-15 22:50:00,
2013-01-15 12:55:00,75.0,58.2,29.84,NE,45,1.0,5.0,56,0.00,,,0.00,WeatherCatV1.11B39,2013-01-15 22:55:00,
2013-01-15 13:00:00,75.0,58.2,29.84,NE,45,1.0,5.0,56,0.00,,,0.00,WeatherCatV1.11B39,2013-01-15 23:00:00,
2013-01-15 13:05:00,75.0,58.2,29.84,NE,45,1.0,5.0,56,0.00,,,0.00,WeatherCatV1.11B39,2013-01-15 23:05:00,
2013-01-15 13:10:00,75.0,58.2,29.84,NE,45,1.0,5.0,56,0.00,,,0.00,WeatherCatV1.11B39,2013-01-15 23:10:00,
2013-01-15 13:15:00,75.0,58.2,29.84,NE,45,1.0,5.0,56,0.00,,,0.00,WeatherCatV1.11B39,2013-01-15 23:15:00,
2013-01-15 13:20:00,75.0,58.2,29.84,NE,45,1.0,5.0,56,0.00,,,0.00,WeatherCatV1.11B39,2013-01-15 23:20:00,
2013-01-15 13:25:00,75.9,59.6,29.82,NNE,22,1.0,6.0,57,0.00,,,0.00,WeatherCatV1.11B39,2013-01-15 23:25:00,
2013-01-15 13:30:00,75.9,59.6,29.82,NNE,22,1.0,6.0,57,0.00,,,0.00,WeatherCatV1.11B39,2013-01-15 23:30:00,
2013-01-15 13:35:00,75.9,59.6,29.82,NNE,22,1.0,6.0,57,0.00,,,0.00,WeatherCatV1.11B39,2013-01-15 23:35:00,
2013-01-15 13:40:00,75.9,59.6,29.82,NNE,22,1.0,6.0,57,0.00,,,0.00,WeatherCatV1.11B39,2013-01-15 23:40:00,
2013-01-15 13:45:00,75.9,59.6,29.82,NNE,22,1.0,6.0,57,0.00,,,0.00,WeatherCatV1.11B39,2013-01-15 23:45:00,
2013-01-15 13:50:00,75.9,59.6,29.82,NNE,22,1.0,6.0,57,0.00,,,0.00,WeatherCatV1.11B39,2013-01-15 23:50:00,
2013-01-15 13:55:00,76.1,60.7,29.81,NE,45,1.0,6.0,59,0.00,,,0.00,WeatherCatV1.11B39,2013-01-15 23:55:00,
2013-01-15 14:00:00,76.1,60.7,29.81,NE,45,1.0,6.0,59,0.00,,,0.00,WeatherCatV1.11B39,2013-01-16 00:00:00,
2013-01-15 14:05:00,76.1,60.7,29.81,NE,45,1.0,6.0,59,0.00,,,0.00,WeatherCatV1.11B39,2013-01-16 00:05:00,
2013-01-15 14:10:00,76.1,60.7,29.81,NE,45,1.0,6.0,59,0.00,,,0.00,WeatherCatV1.11B39,2013-01-16 00:10:00,
2013-01-15 14:15:00,76.1,60.7,29.81,NE,45,1.0,6.0,59,0.00,,,0.00,WeatherCatV1.11B39,2013-01-16 00:15:00,
2013-01-15 14:20:00,76.1,60.7,29.81,NE,45,1.0,6.0,59,0.00,,,0.00,WeatherCatV1.11B39,2013-01-16 00:20:00,
2013-01-15 14:25:00,75.3,60.4,29.81,WNW,292,2.0,8.0,60,0.00,,,0.00,WeatherCatV1.11B39,2013-01-16 00:25:00,
2013-01-15 14:30:00,75.3,60.4,29.81,WNW,292,2.0,8.0,60,0.00,,,0.00,WeatherCatV1.11B39,2013-01-16 00:30:00,
2013-01-15 14:35:00,75.3,60.4,29.81,WNW,292,2.0,8.0,60,0.00,,,0.00,WeatherCatV1.11B39,2013-01-16 00:35:00,
2013-01-15 14:40:00,75.3,60.4,29.81,WNW,292,2.0,8.0,60,0.00,,,0.00,WeatherCatV1.11B39,2013-01-16 00:40:00,
2013-01-15 14:45:00,75.3,60.4,29.81,WNW,292,2.0,8.0,60,0.00,,,0.00,WeatherCatV1.11B39,2013-01-16 00:45:00,
2013-01-15 14:50:00,75.3,60.4,29.81,WNW,292,2.0,8.0,60,0.00,,,0.00,WeatherCatV1.11B39,2013-01-16 00:50:00,
2013-01-15 14:55:00,74.3,59.0,29.81,NW,315,2.0,9.0,59,0.00,,,0.00,WeatherCatV1.11B39,2013-01-16 00:55:00,
2013-01-15 15:00:00,74.3,59.0,29.81,NW,315,2.0,9.0,59,0.00,,,0.00,WeatherCatV1.11B39,2013-01-16 01:00:00,
2013-01-15 15:05:00,74.3,59.0,29.81,NW,315,2.0,9.0,59,0.00,,,0.00,WeatherCatV1.11B39,2013-01-16 01:05:00,
2013-01-15 15:10:00,74.3,59.0,29.81,NW,315,2.0,9.0,59,0.00,,,0.00,WeatherCatV1.11B39,2013-01-16 01:10:00,
2013-01-15 15:15:00,74.3,59.0,29.81,NW,315,2.0,9.0,59,0.00,,,0.00,WeatherCatV1.11B39,2013-01-16 01:15:00,
2013-01-15 15:20:00,73.3,59.9,29.82,WNW,292,2.0,8.0,63,0.00,,,0.00,WeatherCatV1.11B39,2013-01-16 01:20:00,
2013-01-15 15:25:00,73.3,59.9,29.82,WNW,292,2.0,8.0,63,0.00,,,0.00,WeatherCatV1.11B39,2013-01-16 01:25:00,
2013-01-15 15:30:00,73.3,59.9,29.82,WNW,292,2.0,8.0,63,0.00,,,0.00,WeatherCatV1.11B39,2013-01-16 01:30:00,
2013-01-15 15:35:00,73.3,59.9,29.82,WNW,292,2.0,8.0,63,0.00,,,0.00,WeatherCatV1.11B39,2013-01-16 01:35:00,
2013-01-15 15:40:00,73.3,59.9,29.82,WNW,292,2.0,8.0,63,0.00,,,0.00,WeatherCatV1.11B39,2013-01-16 01:40:00,
2013-01-15 15:45:00,73.3,59.9,29.82,WNW,292,2.0,8.0,63,0.00,,,0.00,WeatherCatV1.11B39,2013-01-16 01:45:00,
2013-01-15 15:50:00,74.1,61.1,29.81,NW,315,2.0,12.0,64,0.00,,,0.00,WeatherCatV1.11B39,2013-01-16 01:50:00,
2013-01-15 15:55:00,74.1,61.1,29.81,NW,315,2.0,12.0,64,0.00,,,0.00,WeatherCatV1.11B39,2013-01-16 01:55:00,
2013-01-15 16:00:00,74.1,61.1,29.81,NW,315,2.0,12.0,64,0.00,,,0.00,WeatherCatV1.11B39,2013-01-16 02:00:00,
2013-01-15 16:05:00,74.1,61.1,29.81,NW,315,2.0,12.0,64,0.00,,,0.00,WeatherCatV1.11B39,2013-01-16 02:05:00,
2013-01-15 16:10:00,74.1,61.1,29.81,NW,315,2.0,12.0,64,0.00,,,0.00,WeatherCatV1.11B39,2013-01-16 02:10:00,
2013-01-15 16:15:00,74.1,61.1,29.81,NW,315,2.0,12.0,64,0.00,,,0.00,WeatherCatV1.11B39,2013-01-16 02:15:00,
2013-01-15 16:20:00,74.1,61.1,29.81,NW,315,2.0,12.0,64,0.00,,,0.00,WeatherCatV1.11B39,2013-01-16 02:20:00,
2013-01-15 16:25:00,74.2,60.8,29.82,WNW,292,2.0,12.0,63,0.00,,,0.00,WeatherCatV1.11B39,2013-01-16 02:25:00,
2013-01-15 16:30:00,74.2,60.8,29.82,WNW,292,2.0,12.0,63,0.00,,,0.00,WeatherCatV1.11B39,2013-01-16 02:30:00,
2013-01-15 16:35:00,74.2,60.8,29.82,WNW,292,2.0,12.0,63,0.00,,,0.00,WeatherCatV1.11B39,2013-01-16 02:35:00,
2013-01-15 16:40:00,74.2,60.8,29.82,WNW,292,2.0,12.0,63,0.00,,,0.00,WeatherCatV1.11B39,2013-01-16 02:40:00,
2013-01-15 16:45:00,74.2,60.8,29.82,WNW,292,2.0,12.0,63,0.00,,,0.00,WeatherCatV1.11B39,2013-01-16 02:45:00,
2013-01-15 16:50:00,73.4,60.0,29.83,NW,315,2.0,8.0,63,0.00,,,0.00,WeatherCatV1.11B39,2013-01-16 02:50:00,
2013-01-15 16:55:00,73.4,60.0,29.83,NW,315,2.0,8.0,63,0.00,,,0.00,WeatherCatV1.11B39,2013-01-16 02:55:00,
2013-01-15 17:00:00,73.4,60.0,29.83,NW,315,2.0,8.0,63,0.00,,,0.00,WeatherCatV1.11B39,2013-01-16 03:00:00,
2013-01-15 17:05:00,73.4,60.0,29.83,NW,315,2.0,8.0,63,0.00,,,0.00,WeatherCatV1.11B39,2013-01-16 03:05:00,
2013-01-15 17:10:00,73.4,60.0,29.83,NW,315,2.0,8.0,63,0.00,,,0.00,WeatherCatV1.11B39,2013-01-16 03:10:00,
2013-01-15 17:15:00,73.4,60.0,29.83,NW,315,2.0,8.0,63,0.00,,,0.00,WeatherCatV1.11B39,2013-01-16 03:15:00,
2013-01-15 17:20:00,73.3,60.4,29.84,WNW,292,2.0,7.0,64,0.00,,,0.00,WeatherCatV1.11B39,2013-01-16 03:20:00,
2013-01-15 17:25:00,73.3,60.4,29.84,WNW,292,2.0,7.0,64,0.00,,,0.00,WeatherCatV1.11B39,2013-01-16 03:25:00,
2013-01-15 17:30:00,73.3,60.4,29.84,WNW,292,2.0,7.0,64,0.00,,,0.00,WeatherCatV1.11B39,2013-01-16 03:30:00,
2013-01-15 17:35:00,73.3,60.4,29.84,WNW,292,2.0,7.0,64,0.00,,,0.00,WeatherCatV1.11B39,2013-01-16 03:35:00,
2013-01-15 17:40:00,73.3,60.4,29.84,WNW,292,2.0,7.0,64,0.00,,,0.00,WeatherCatV1.11B39,2013-01-16 03:40:00,
2013-01-15 17:45:00,73.3,60.4,29.84,WNW,292,2.0,7.0,64,0.00,,,0.00,WeatherCatV1.11B39,2013-01-16 03:45:00,
2013-01-15 17:50:00,72.2,59.3,29.85,West,270,2.0,11.0,64,0.00,,,0.00,WeatherCatV1.11B39,2013-01-16 03:50:00,
2013-01-15 17:55:00,72.2,59.3,29.85,West,270,2.0,11.0,64,0.00,,,0.00,WeatherCatV1.11B39,2013-01-16 03:55:00,
2013-01-15 18:00:00,72.2,59.3,29.85,West,270,2.0,11.0,64,0.00,,,0.00,WeatherCatV1.11B39,2013-01-16 04:00:00,
2013-01-15 18:05:00,72.2,59.3,29.85,West,270,2.0,11.0,64,0.00,,,0.00,WeatherCatV1.11B39,2013-01-16 04:05:00,
2013-01-15 18:10:00,72.2,59.3,29.85,West,270,2.0,11.0,64,0.00,,,0.00,WeatherCatV1.11B39,2013-01-16 04:10:00,
2013-01-15 18:15:00,72.2,59.3,29.85,West,270,2.0,11.0,64,0.00,,,0.00,WeatherCatV1.11B39,2013-01-16 04:15:00,
2013-01-15 18:20:00,72.2,59.3,29.85,West,270,2.0,11.0,64,0.00,,,0.00,WeatherCatV1.11B39,2013-01-16 04:20:00,
2013-01-15 18:25:00,69.3,59.1,29.86,WNW,292,1.0,5.0,70,0.00,,,0.00,WeatherCatV1.11B39,2013-01-16 04:25:00,
2013-01-15 18:30:00,69.3,59.1,29.86,WNW,292,1.0,5.0,70,0.00,,,0.00,WeatherCatV1.11B39,2013-01-16 04:30:00,
2013-01-15 18:35:00,69.3,59.1,29.86,WNW,292,1.0,5.0,70,0.00,,,0.00,WeatherCatV1.11B39,2013-01-16 04:35:00,
2013-01-15 18:40:00,69.3,59.1,29.86,WNW,292,1.0,5.0,70,0.00,,,0.00,WeatherCatV1.11B39,2013-01-16 04:40:00,
2013-01-15 18:45:00,69.3,59.1,29.86,WNW,292,1.0,5.0,70,0.00,,,0.00,WeatherCatV1.11B39,2013-01-16 04:45:00,
2013-01-15 18:50:00,66.1,59.7,29.86,SW,225,0.0,2.0,80,0.00,,,0.00,WeatherCatV1.11B39,2013-01-16 04:50:00,
2013-01-15 18:55:00,66.1,59.7,29.86,SW,225,0.0,2.0,80,0.00,,,0.00,WeatherCatV1.11B39,2013-01-16 04:55:00,
2013-01-15 19:00:00,66.1,59.7,29.86,SW,225,0.0,2.0,80,0.00,,,0.00,WeatherCatV1.11B39,2013-01-16 05:00:00,
2013-01-15 19:05:00,66.1,59.7,29.86,SW,225,0.0,2.0,80,0.00,,,0.00,WeatherCatV1.11B39,2013-01-16 05:05:00,
2013-01-15 19:10:00,66.1,59.7,29.86,SW,225,0.0,2.0,80,0.00,,,0.00,WeatherCatV1.11B39,2013-01-16 05:10:00,
2013-01-15 19:15:00,66.1,59.7,29.86,SW,225,0.0,2.0,80,0.00,,,0.00,WeatherCatV1.11B39,2013-01-16 05:15:00,
2013-01-15 19:20:00,62.7,59.4,29.86,SW,225,0.0,0.0,89,0.00,,,0.00,WeatherCatV1.11B39,2013-01-16 05:20:00,
2013-01-15 19:25:00,62.7,59.4,29.86,SW,225,0.0,0.0,89,0.00,,,0.00,WeatherCatV1.11B39,2013-01-16 05:25:00,
2013-01-15 19:30:00,62.7,59.4,29.86,SW,225,0.0,0.0,89,0.00,,,0.00,WeatherCatV1.11B39,2013-01-16 05:30:00,
2013-01-15 19:35:00,62.7,59.4,29.86,SW,225,0.0,0.0,89,0.00,,,0.00,WeatherCatV1.11B39,2013-01-16 05:35:00,
2013-01-15 19:40:00,62.7,59.4,29.86,SW,225,0.0,0.0,89,0.00,,,0.00,WeatherCatV1.11B39,2013-01-16 05:40:00,
2013-01-15 19:45:00,62.7,59.4,29.86,SW,225,0.0,0.0,89,0.00,,,0.00,WeatherCatV1.11B39,2013-01-16 05:45:00,
2013-01-15 19:50:00,62.7,59.4,29.86,SW,225,0.0,0.0,89,0.00,,,0.00,WeatherCatV1.11B39,2013-01-16 05:50:00,
2013-01-15 19:55:00,61.2,58.9,29.86,SW,225,0.0,0.0,92,0.00,,,0.00,WeatherCatV1.11B39,2013-01-16 05:55:00,
2013-01-15 20:00:00,61.2,58.9,29.86,SW,225,0.0,0.0,92,0.00,,,0.00,WeatherCatV1.11B39,2013-01-16 06:00:00,
2013-01-15 20:05:00,61.2,58.9,29.86,SW,225,0.0,0.0,92,0.00,,,0.00,WeatherCatV1.11B39,2013-01-16 06:05:00,
2013-01-15 20:10:00,61.2,58.9,29.86,SW,225,0.0,0.0,92,0.00,,,0.00,WeatherCatV1.11B39,2013-01-16 06:10:00,
2013-01-15 20:15:00,61.2,58.9,29.86,SW,225,0.0,0.0,92,0.00,,,0.00,WeatherCatV1.11B39,2013-01-16 06:15:00,
2013-01-15 20:20:00,61.2,58.9,29.86,SW,225,0.0,0.0,92,0.00,,,0.00,WeatherCatV1.11B39,2013-01-16 06:20:00,
2013-01-15 20:25:00,60.0,58.0,29.87,SW,225,0.0,0.0,93,0.00,,,0.00,WeatherCatV1.11B39,2013-01-16 06:25:00,
2013-01-15 20:30:00,60.0,58.0,29.87,SW,225,0.0,0.0,93,0.00,,,0.00,WeatherCatV1.11B39,2013-01-16 06:30:00,
2013-01-15 20:35:00,60.0,58.0,29.87,SW,225,0.0,0.0,93,0.00,,,0.00,WeatherCatV1.11B39,2013-01-16 06:35:00,
2013-01-15 20:40:00,60.0,58.0,29.87,SW,225,0.0,0.0,93,0.00,,,0.00,WeatherCatV1.11B39,2013-01-16 06:40:00,
2013-01-15 20:45:00,60.0,58.0,29.87,SW,225,0.0,0.0,93,0.00,,,0.00,WeatherCatV1.11B39,2013-01-16 06:45:00,
2013-01-15 20:50:00,60.0,58.0,29.87,SW,225,0.0,0.0,93,0.00,,,0.00,WeatherCatV1.11B39,2013-01-16 06:50:00,
2013-01-15 20:55:00,59.1,57.1,29.87,SW,225,0.0,0.0,93,0.00,,,0.00,WeatherCatV1.11B39,2013-01-16 06:55:00,
2013-01-15 21:00:00,59.1,57.1,29.87,SW,225,0.0,0.0,93,0.00,,,0.00,WeatherCatV1.11B39,2013-01-16 07:00:00,
2013-01-15 21:05:00,59.1,57.1,29.87,SW,225,0.0,0.0,93,0.00,,,0.00,WeatherCatV1.11B39,2013-01-16 07:05:00,
2013-01-15 21:10:00,59.1,57.1,29.87,SW,225,0.0,0.0,93,0.00,,,0.00,WeatherCatV1.11B39,2013-01-16 07:10:00,
2013-01-15 21:15:00,59.1,57.1,29.87,SW,225,0.0,0.0,93,0.00,,,0.00,WeatherCatV1.11B39,2013-01-16 07:15:00,
2013-01-15 21:20:00,59.1,57.1,29.87,SW,225,0.0,0.0,93,0.00,,,0.00,WeatherCatV1.11B39,2013-01-16 07:20:00,
2013-01-15 21:25:00,58.3,56.6,29.86,SW,225,0.0,0.0,94,0.00,,,0.00,WeatherCatV1.11B39,2013-01-16 07:25:00,
2013-01-15 21:30:00,58.3,56.6,29.86,SW,225,0.0,0.0,94,0.00,,,0.00,WeatherCatV1.11B39,2013-01-16 07:30:00,
2013-01-15 21:35:00,58.3,56.6,29.86,SW,225,0.0,0.0,94,0.00,,,0.00,WeatherCatV1.11B39,2013-01-16 07:35:00,
2013-01-15 21:40:00,58.3,56.6,29.86,SW,225,0.0,0.0,94,0.00,,,0.00,WeatherCatV1.11B39,2013-01-16 07:40:00,
2013-01-15 21:45:00,58.3,56.6,29.86,SW,225,0.0,0.0,94,0.00,,,0.00,WeatherCatV1.11B39,2013-01-16 07:45:00,
2013-01-15 21:50:00,58.3,56.6,29.86,SW,225,0.0,0.0,94,0.00,,,0.00,WeatherCatV1.11B39,2013-01-16 07:50:00,
2013-01-15 21:55:00,57.8,55.8,29.87,SW,225,0.0,0.0,93,0.00,,,0.00,WeatherCatV1.11B39,2013-01-16 07:55:00,
2013-01-15 22:00:00,57.8,55.8,29.87,SW,225,0.0,0.0,93,0.00,,,0.00,WeatherCatV1.11B39,2013-01-16 08:00:00,
2013-01-15 22:05:00,57.8,55.8,29.87,SW,225,0.0,0.0,93,0.00,,,0.00,WeatherCatV1.11B39,2013-01-16 08:05:00,
2013-01-15 22:10:00,57.8,55.8,29.87,SW,225,0.0,0.0,93,0.00,,,0.00,WeatherCatV1.11B39,2013-01-16 08:10:00,
2013-01-15 22:15:00,57.8,55.8,29.87,SW,225,0.0,0.0,93,0.00,,,0.00,WeatherCatV1.11B39,2013-01-16 08:15:00,
2013-01-15 22:20:00,57.8,55.8,29.87,SW,225,0.0,0.0,93,0.00,,,0.00,WeatherCatV1.11B39,2013-01-16 08:20:00,
2013-01-15 22:25:00,57.7,55.4,29.87,North,0,0.0,1.0,92,0.00,,,0.00,WeatherCatV1.11B39,2013-01-16 08:25:00,
2013-01-15 22:30:00,57.7,55.4,29.87,North,0,0.0,1.0,92,0.00,,,0.00,WeatherCatV1.11B39,2013-01-16 08:30:00,
2013-01-15 22:35:00,57.7,55.4,29.87,North,0,0.0,1.0,92,0.00,,,0.00,WeatherCatV1.11B39,2013-01-16 08:35:00,
2013-01-15 22:40:00,57.7,55.4,29.87,North,0,0.0,1.0,92,0.00,,,0.00,WeatherCatV1.11B39,2013-01-16 08:40:00,
2013-01-15 22:45:00,57.7,55.4,29.87,North,0,0.0,1.0,92,0.00,,,0.00,WeatherCatV1.11B39,2013-01-16 08:45:00,
2013-01-15 22:50:00,57.7,55.4,29.87,North,0,0.0,1.0,92,0.00,,,0.00,WeatherCatV1.11B39,2013-01-16 08:50:00,
2013-01-15 22:55:00,57.7,55.1,29.86,North,0,0.0,0.0,91,0.00,,,0.00,WeatherCatV1.11B39,2013-01-16 08:55:00,
2013-01-15 23:00:00,57.7,55.1,29.86,North,0,0.0,0.0,91,0.00,,,0.00,WeatherCatV1.11B39,2013-01-16 09:00:00,
2013-01-15 23:05:00,57.7,55.1,29.86,North,0,0.0,0.0,91,0.00,,,0.00,WeatherCatV1.11B39,2013-01-16 09:05:00,
2013-01-15 23:10:00,57.7,55.1,29.86,North,0,0.0,0.0,91,0.00,,,0.00,WeatherCatV1.11B39,2013-01-16 09:10:00,
2013-01-15 23:15:00,57.7,55.1,29.86,North,0,0.0,0.0,91,0.00,,,0.00,WeatherCatV1.11B39,2013-01-16 09:15:00,
2013-01-15 23:20:00,57.7,55.1,29.86,North,0,0.0,0.0,91,0.00,,,0.00,WeatherCatV1.11B39,2013-01-16 09:20:00,
2013-01-15 23:25:00,57.2,55.2,29.86,North,0,0.0,1.0,93,0.00,,,0.00,WeatherCatV1.11B39,2013-01-16 09:25:00,
2013-01-15 23:30:00,57.2,55.2,29.86,North,0,0.0,1.0,93,0.00,,,0.00,WeatherCatV1.11B39,2013-01-16 09:30:00,
2013-01-15 23:35:00,57.2,55.2,29.86,North,0,0.0,1.0,93,0.00,,,0.00,WeatherCatV1.11B39,2013-01-16 09:35:00,
2013-01-15 23:40:00,57.2,55.2,29.86,North,0,0.0,1.0,93,0.00,,,0.00,WeatherCatV1.11B39,2013-01-16 09:40:00,
2013-01-15 23:45:00,57.2,55.2,29.86,North,0,0.0,1.0,93,0.00,,,0.00,WeatherCatV1.11B39,2013-01-16 09:45:00,
2013-01-15 23:50:00,57.4,55.1,29.86,NE,45,0.0,1.0,92,0.00,,,0.00,WeatherCatV1.11B39,2013-01-16 09:50:00,
2013-01-15 23:55:00,57.4,55.1,29.86,NE,45,0.0,1.0,92,0.00,,,0.00,WeatherCatV1.11B39,2013-01-16 09:55:00,